sensor_id;sensor_type;location;lat;lon;timestamp;temperature;humidity
10883;DHT22;5494;51.796;10.952;2023-06-22T00:01:36;20.30;99.90
10883;DHT22;5494;51.796;10.952;2023-06-22T00:04:06;20.30;99.90
10883;DHT22;5494;51.796;10.952;2023-06-22T00:06:34;20.30;99.90
10883;DHT22;5494;51.796;10.952;2023-06-22T00:09:02;20.30;99.90
10883;DHT22;5494;51.796;10.952;2023-06-22T00:11:30;20.30;99.90
10883;DHT22;5494;51.796;10.952;2023-06-22T00:14:00;20.30;99.90
10883;DHT22;5494;51.796;10.952;2023-06-22T00:16:30;20.30;99.90
10883;DHT22;5494;51.796;10.952;2023-06-22T00:18:59;20.20;99.90
10883;DHT22;5494;51.796;10.952;2023-06-22T00:21:29;20.10;99.90
10883;DHT22;5494;51.796;10.952;2023-06-22T00:23:57;20.10;99.90
10883;DHT22;5494;51.796;10.952;2023-06-22T00:26:26;20.10;99.90
10883;DHT22;5494;51.796;10.952;2023-06-22T00:28:54;20.00;99.90
10883;DHT22;5494;51.796;10.952;2023-06-22T00:31:22;20.00;99.90
10883;DHT22;5494;51.796;10.952;2023-06-22T00:33:58;20.00;99.90
10883;DHT22;5494;51.796;10.952;2023-06-22T00:36:26;20.00;99.90
10883;DHT22;5494;51.796;10.952;2023-06-22T00:38:54;19.90;99.90
10883;DHT22;5494;51.796;10.952;2023-06-22T00:41:22;19.90;99.90
10883;DHT22;5494;51.796;10.952;2023-06-22T00:43:50;19.90;99.90
10883;DHT22;5494;51.796;10.952;2023-06-22T00:46:19;19.90;99.90
10883;DHT22;5494;51.796;10.952;2023-06-22T00:48:47;19.90;99.90
10883;DHT22;5494;51.796;10.952;2023-06-22T00:51:17;19.80;99.90
10883;DHT22;5494;51.796;10.952;2023-06-22T00:53:47;19.80;99.90
10883;DHT22;5494;51.796;10.952;2023-06-22T00:56:15;19.80;99.90
10883;DHT22;5494;51.796;10.952;2023-06-22T00:58:46;21.20;99.90
10883;DHT22;5494;51.796;10.952;2023-06-22T01:01:16;19.80;99.90
10883;DHT22;5494;51.796;10.952;2023-06-22T01:03:44;19.80;99.90
10883;DHT22;5494;51.796;10.952;2023-06-22T01:06:21;19.80;99.90
10883;DHT22;5494;51.796;10.952;2023-06-22T01:09:00;19.70;99.90
10883;DHT22;5494;51.796;10.952;2023-06-22T01:11:38;19.70;99.90
10883;DHT22;5494;51.796;10.952;2023-06-22T01:14:15;19.70;99.90
10883;DHT22;5494;51.796;10.952;2023-06-22T01:16:51;19.60;99.90
10883;DHT22;5494;51.796;10.952;2023-06-22T01:19:34;19.60;99.90
10883;DHT22;5494;51.796;10.952;2023-06-22T01:22:16;19.60;99.90
10883;DHT22;5494;51.796;10.952;2023-06-22T01:24:55;19.60;99.90
10883;DHT22;5494;51.796;10.952;2023-06-22T01:27:36;19.50;99.90
10883;DHT22;5494;51.796;10.952;2023-06-22T01:30:16;19.50;99.90
10883;DHT22;5494;51.796;10.952;2023-06-22T01:32:47;19.50;99.90
10883;DHT22;5494;51.796;10.952;2023-06-22T01:35:17;19.50;99.90
10883;DHT22;5494;51.796;10.952;2023-06-22T01:37:48;19.50;99.90
10883;DHT22;5494;51.796;10.952;2023-06-22T01:40:18;19.50;99.90
10883;DHT22;5494;51.796;10.952;2023-06-22T01:42:50;19.50;99.90
10883;DHT22;5494;51.796;10.952;2023-06-22T01:45:20;19.50;99.90
10883;DHT22;5494;51.796;10.952;2023-06-22T01:47:49;19.40;99.90
10883;DHT22;5494;51.796;10.952;2023-06-22T01:50:18;19.40;99.90
10883;DHT22;5494;51.796;10.952;2023-06-22T01:52:46;19.30;99.90
10883;DHT22;5494;51.796;10.952;2023-06-22T01:55:14;19.30;99.90
10883;DHT22;5494;51.796;10.952;2023-06-22T01:57:42;19.20;99.90
10883;DHT22;5494;51.796;10.952;2023-06-22T02:00:13;19.20;99.90
10883;DHT22;5494;51.796;10.952;2023-06-22T02:02:54;19.20;99.90
10883;DHT22;5494;51.796;10.952;2023-06-22T02:05:33;19.10;99.90
10883;DHT22;5494;51.796;10.952;2023-06-22T02:08:08;19.10;99.90
10883;DHT22;5494;51.796;10.952;2023-06-22T02:10:40;19.10;99.90
10883;DHT22;5494;51.796;10.952;2023-06-22T02:13:13;19.20;99.90
10883;DHT22;5494;51.796;10.952;2023-06-22T02:15:42;19.10;99.90
10883;DHT22;5494;51.796;10.952;2023-06-22T02:18:13;19.10;99.90
10883;DHT22;5494;51.796;10.952;2023-06-22T02:20:41;19.10;99.90
10883;DHT22;5494;51.796;10.952;2023-06-22T02:23:10;19.20;99.90
10883;DHT22;5494;51.796;10.952;2023-06-22T02:25:38;19.10;99.90
10883;DHT22;5494;51.796;10.952;2023-06-22T02:28:06;19.10;99.90
10883;DHT22;5494;51.796;10.952;2023-06-22T02:30:34;19.10;99.90
10883;DHT22;5494;51.796;10.952;2023-06-22T02:33:02;19.10;99.90
10883;DHT22;5494;51.796;10.952;2023-06-22T02:35:32;19.10;99.90
10883;DHT22;5494;51.796;10.952;2023-06-22T02:38:03;19.10;99.90
10883;DHT22;5494;51.796;10.952;2023-06-22T02:40:32;19.10;99.90
10883;DHT22;5494;51.796;10.952;2023-06-22T02:43:00;19.10;99.90
10883;DHT22;5494;51.796;10.952;2023-06-22T02:45:30;19.10;99.90
10883;DHT22;5494;51.796;10.952;2023-06-22T02:47:58;19.10;99.90
10883;DHT22;5494;51.796;10.952;2023-06-22T02:50:26;19.10;99.90
10883;DHT22;5494;51.796;10.952;2023-06-22T02:52:56;19.20;99.90
10883;DHT22;5494;51.796;10.952;2023-06-22T02:55:25;19.20;99.90
10883;DHT22;5494;51.796;10.952;2023-06-22T02:57:56;19.30;99.90
10883;DHT22;5494;51.796;10.952;2023-06-22T03:00:28;19.30;99.90
10883;DHT22;5494;51.796;10.952;2023-06-22T03:02:58;19.30;99.90
10883;DHT22;5494;51.796;10.952;2023-06-22T03:05:27;19.30;99.90
10883;DHT22;5494;51.796;10.952;2023-06-22T03:07:58;19.30;99.90
10883;DHT22;5494;51.796;10.952;2023-06-22T03:10:30;19.30;99.90
10883;DHT22;5494;51.796;10.952;2023-06-22T03:12:58;19.40;99.90
10883;DHT22;5494;51.796;10.952;2023-06-22T03:15:26;19.40;99.90
10883;DHT22;5494;51.796;10.952;2023-06-22T03:17:55;19.50;99.90
10883;DHT22;5494;51.796;10.952;2023-06-22T03:20:24;19.50;99.90
10883;DHT22;5494;51.796;10.952;2023-06-22T03:22:54;19.60;99.90
10883;DHT22;5494;51.796;10.952;2023-06-22T03:25:24;19.60;99.90
10883;DHT22;5494;51.796;10.952;2023-06-22T03:27:53;19.70;99.90
10883;DHT22;5494;51.796;10.952;2023-06-22T03:30:22;19.70;99.90
10883;DHT22;5494;51.796;10.952;2023-06-22T03:32:50;19.80;99.90
10883;DHT22;5494;51.796;10.952;2023-06-22T03:35:18;19.80;99.90
10883;DHT22;5494;51.796;10.952;2023-06-22T03:37:47;19.80;99.90
10883;DHT22;5494;51.796;10.952;2023-06-22T03:40:18;19.90;99.90
10883;DHT22;5494;51.796;10.952;2023-06-22T03:42:48;19.90;99.90
10883;DHT22;5494;51.796;10.952;2023-06-22T03:45:16;19.90;99.90
10883;DHT22;5494;51.796;10.952;2023-06-22T03:47:49;19.90;99.90
10883;DHT22;5494;51.796;10.952;2023-06-22T03:50:17;19.90;99.90
10883;DHT22;5494;51.796;10.952;2023-06-22T03:52:47;20.00;99.90
10883;DHT22;5494;51.796;10.952;2023-06-22T03:55:15;20.00;99.90
10883;DHT22;5494;51.796;10.952;2023-06-22T03:57:43;20.00;99.90
10883;DHT22;5494;51.796;10.952;2023-06-22T04:00:14;20.00;99.90
10883;DHT22;5494;51.796;10.952;2023-06-22T04:02:43;20.00;99.90
10883;DHT22;5494;51.796;10.952;2023-06-22T04:05:11;20.10;99.90
10883;DHT22;5494;51.796;10.952;2023-06-22T04:07:40;20.10;99.90
10883;DHT22;5494;51.796;10.952;2023-06-22T04:10:08;20.20;99.90
10883;DHT22;5494;51.796;10.952;2023-06-22T04:12:39;20.20;99.90
10883;DHT22;5494;51.796;10.952;2023-06-22T04:15:08;20.20;99.90
10883;DHT22;5494;51.796;10.952;2023-06-22T04:17:38;20.20;99.90
10883;DHT22;5494;51.796;10.952;2023-06-22T04:20:07;20.30;99.90
10883;DHT22;5494;51.796;10.952;2023-06-22T04:22:36;20.30;99.90
10883;DHT22;5494;51.796;10.952;2023-06-22T04:25:06;20.30;99.90
10883;DHT22;5494;51.796;10.952;2023-06-22T04:27:35;20.40;99.90
10883;DHT22;5494;51.796;10.952;2023-06-22T04:30:05;20.40;99.90
10883;DHT22;5494;51.796;10.952;2023-06-22T04:32:34;20.40;99.90
10883;DHT22;5494;51.796;10.952;2023-06-22T04:35:05;20.50;99.90
10883;DHT22;5494;51.796;10.952;2023-06-22T04:37:34;20.60;99.90
10883;DHT22;5494;51.796;10.952;2023-06-22T04:40:03;20.70;99.90
10883;DHT22;5494;51.796;10.952;2023-06-22T04:42:34;20.70;99.90
10883;DHT22;5494;51.796;10.952;2023-06-22T04:45:04;20.80;99.90
10883;DHT22;5494;51.796;10.952;2023-06-22T04:47:32;20.80;99.90
10883;DHT22;5494;51.796;10.952;2023-06-22T04:50:00;20.90;99.90
10883;DHT22;5494;51.796;10.952;2023-06-22T04:52:33;21.00;99.90
10883;DHT22;5494;51.796;10.952;2023-06-22T04:55:02;21.10;99.90
10883;DHT22;5494;51.796;10.952;2023-06-22T04:57:30;21.30;99.90
10883;DHT22;5494;51.796;10.952;2023-06-22T04:59:59;21.40;99.90
10883;DHT22;5494;51.796;10.952;2023-06-22T05:02:38;21.50;99.90
10883;DHT22;5494;51.796;10.952;2023-06-22T05:05:07;21.70;99.90
10883;DHT22;5494;51.796;10.952;2023-06-22T05:07:42;21.70;99.90
10883;DHT22;5494;51.796;10.952;2023-06-22T05:10:11;21.90;99.90
10883;DHT22;5494;51.796;10.952;2023-06-22T05:12:40;21.90;99.90
10883;DHT22;5494;51.796;10.952;2023-06-22T05:15:10;21.90;99.90
10883;DHT22;5494;51.796;10.952;2023-06-22T05:17:38;21.80;99.90
10883;DHT22;5494;51.796;10.952;2023-06-22T05:20:10;21.60;99.90
10883;DHT22;5494;51.796;10.952;2023-06-22T05:22:41;21.40;99.90
10883;DHT22;5494;51.796;10.952;2023-06-22T05:25:10;21.30;99.90
10883;DHT22;5494;51.796;10.952;2023-06-22T05:27:39;21.20;99.90
10883;DHT22;5494;51.796;10.952;2023-06-22T05:30:08;21.30;99.90
10883;DHT22;5494;51.796;10.952;2023-06-22T05:32:38;21.40;99.90
10883;DHT22;5494;51.796;10.952;2023-06-22T05:35:07;21.40;99.90
10883;DHT22;5494;51.796;10.952;2023-06-22T05:37:35;21.30;99.90
10883;DHT22;5494;51.796;10.952;2023-06-22T05:40:10;21.30;99.90
10883;DHT22;5494;51.796;10.952;2023-06-22T05:42:38;21.40;99.90
10883;DHT22;5494;51.796;10.952;2023-06-22T05:45:07;21.40;99.90
10883;DHT22;5494;51.796;10.952;2023-06-22T05:47:35;21.60;99.90
10883;DHT22;5494;51.796;10.952;2023-06-22T05:50:04;21.60;99.90
10883;DHT22;5494;51.796;10.952;2023-06-22T05:52:39;21.70;99.90
10883;DHT22;5494;51.796;10.952;2023-06-22T05:55:09;21.70;99.90
10883;DHT22;5494;51.796;10.952;2023-06-22T05:57:37;21.60;99.90
10883;DHT22;5494;51.796;10.952;2023-06-22T06:00:06;21.80;99.90
10883;DHT22;5494;51.796;10.952;2023-06-22T06:02:37;21.80;99.90
10883;DHT22;5494;51.796;10.952;2023-06-22T06:05:11;21.80;99.90
10883;DHT22;5494;51.796;10.952;2023-06-22T06:07:41;21.80;99.90
10883;DHT22;5494;51.796;10.952;2023-06-22T06:10:11;21.80;99.90
10883;DHT22;5494;51.796;10.952;2023-06-22T06:12:39;21.90;99.90
10883;DHT22;5494;51.796;10.952;2023-06-22T06:15:08;21.90;99.90
10883;DHT22;5494;51.796;10.952;2023-06-22T06:17:45;21.90;99.90
10883;DHT22;5494;51.796;10.952;2023-06-22T06:20:14;21.90;99.90
10883;DHT22;5494;51.796;10.952;2023-06-22T06:22:43;21.80;99.90
10883;DHT22;5494;51.796;10.952;2023-06-22T06:25:12;21.90;99.90
10883;DHT22;5494;51.796;10.952;2023-06-22T06:27:46;21.90;99.90
10883;DHT22;5494;51.796;10.952;2023-06-22T06:30:16;22.00;99.90
10883;DHT22;5494;51.796;10.952;2023-06-22T06:32:46;22.00;99.90
10883;DHT22;5494;51.796;10.952;2023-06-22T06:35:15;21.90;99.90
10883;DHT22;5494;51.796;10.952;2023-06-22T06:37:44;21.90;99.90
10883;DHT22;5494;51.796;10.952;2023-06-22T06:40:16;22.10;99.90
10883;DHT22;5494;51.796;10.952;2023-06-22T06:42:46;22.20;99.90
10883;DHT22;5494;51.796;10.952;2023-06-22T06:45:18;22.50;99.90
10883;DHT22;5494;51.796;10.952;2023-06-22T06:47:49;22.70;99.90
10883;DHT22;5494;51.796;10.952;2023-06-22T06:50:19;22.90;99.90
10883;DHT22;5494;51.796;10.952;2023-06-22T06:52:48;23.20;99.90
10883;DHT22;5494;51.796;10.952;2023-06-22T06:55:21;23.30;99.90
10883;DHT22;5494;51.796;10.952;2023-06-22T06:57:51;23.40;99.90
10883;DHT22;5494;51.796;10.952;2023-06-22T07:00:20;23.50;99.90
10883;DHT22;5494;51.796;10.952;2023-06-22T07:02:49;23.70;99.90
10883;DHT22;5494;51.796;10.952;2023-06-22T07:05:17;23.80;99.90
10883;DHT22;5494;51.796;10.952;2023-06-22T07:07:48;24.00;99.90
10883;DHT22;5494;51.796;10.952;2023-06-22T07:10:16;23.80;99.90
10883;DHT22;5494;51.796;10.952;2023-06-22T07:12:46;24.00;99.90
10883;DHT22;5494;51.796;10.952;2023-06-22T07:15:14;24.10;99.90
10883;DHT22;5494;51.796;10.952;2023-06-22T07:17:42;24.00;99.90
10883;DHT22;5494;51.796;10.952;2023-06-22T07:20:11;24.00;99.90
10883;DHT22;5494;51.796;10.952;2023-06-22T07:22:41;23.80;99.90
10883;DHT22;5494;51.796;10.952;2023-06-22T07:25:12;23.60;99.90
10883;DHT22;5494;51.796;10.952;2023-06-22T07:27:57;23.60;99.90
10883;DHT22;5494;51.796;10.952;2023-06-22T07:30:28;23.60;99.90
10883;DHT22;5494;51.796;10.952;2023-06-22T07:32:58;23.80;99.90
10883;DHT22;5494;51.796;10.952;2023-06-22T07:35:33;23.90;99.90
10883;DHT22;5494;51.796;10.952;2023-06-22T07:38:01;23.70;99.90
10883;DHT22;5494;51.796;10.952;2023-06-22T07:40:32;23.50;99.90
10883;DHT22;5494;51.796;10.952;2023-06-22T07:43:02;23.50;99.90
10883;DHT22;5494;51.796;10.952;2023-06-22T07:45:31;23.50;99.90
10883;DHT22;5494;51.796;10.952;2023-06-22T07:48:00;23.60;99.90
10883;DHT22;5494;51.796;10.952;2023-06-22T07:50:28;23.50;99.90
10883;DHT22;5494;51.796;10.952;2023-06-22T07:52:58;23.70;99.90
10883;DHT22;5494;51.796;10.952;2023-06-22T07:55:26;23.70;99.90
10883;DHT22;5494;51.796;10.952;2023-06-22T07:57:55;23.60;99.90
10883;DHT22;5494;51.796;10.952;2023-06-22T08:00:27;23.50;99.90
10883;DHT22;5494;51.796;10.952;2023-06-22T08:02:55;23.50;99.90
10883;DHT22;5494;51.796;10.952;2023-06-22T08:05:23;23.60;99.90
10883;DHT22;5494;51.796;10.952;2023-06-22T08:07:52;23.50;99.90
10883;DHT22;5494;51.796;10.952;2023-06-22T08:10:21;23.30;99.90
10883;DHT22;5494;51.796;10.952;2023-06-22T08:12:50;22.90;99.90
10883;DHT22;5494;51.796;10.952;2023-06-22T08:15:18;23.50;99.90
10883;DHT22;5494;51.796;10.952;2023-06-22T08:17:48;23.90;99.90
10883;DHT22;5494;51.796;10.952;2023-06-22T08:20:16;24.30;99.90
10883;DHT22;5494;51.796;10.952;2023-06-22T08:22:44;24.70;99.90
10883;DHT22;5494;51.796;10.952;2023-06-22T08:25:12;25.00;99.90
10883;DHT22;5494;51.796;10.952;2023-06-22T08:27:45;25.50;99.90
10883;DHT22;5494;51.796;10.952;2023-06-22T08:30:14;26.10;99.90
10883;DHT22;5494;51.796;10.952;2023-06-22T08:32:42;26.30;99.90
10883;DHT22;5494;51.796;10.952;2023-06-22T08:35:12;26.20;99.90
10883;DHT22;5494;51.796;10.952;2023-06-22T08:37:43;26.30;99.90
10883;DHT22;5494;51.796;10.952;2023-06-22T08:40:17;26.10;99.90
10883;DHT22;5494;51.796;10.952;2023-06-22T08:42:47;26.00;99.90
10883;DHT22;5494;51.796;10.952;2023-06-22T08:45:16;25.50;99.90
10883;DHT22;5494;51.796;10.952;2023-06-22T08:47:44;25.20;99.90
10883;DHT22;5494;51.796;10.952;2023-06-22T08:50:13;25.20;99.90
10883;DHT22;5494;51.796;10.952;2023-06-22T08:52:42;25.50;99.90
10883;DHT22;5494;51.796;10.952;2023-06-22T08:55:15;26.00;99.90
10883;DHT22;5494;51.796;10.952;2023-06-22T08:57:43;26.60;99.90
10883;DHT22;5494;51.796;10.952;2023-06-22T09:00:12;27.10;99.90
10883;DHT22;5494;51.796;10.952;2023-06-22T09:02:43;27.10;99.90
10883;DHT22;5494;51.796;10.952;2023-06-22T09:05:13;27.20;99.90
10883;DHT22;5494;51.796;10.952;2023-06-22T09:07:42;27.10;99.90
10883;DHT22;5494;51.796;10.952;2023-06-22T09:10:10;27.30;99.90
10883;DHT22;5494;51.796;10.952;2023-06-22T09:12:39;26.60;99.90
10883;DHT22;5494;51.796;10.952;2023-06-22T09:15:08;27.00;99.90
10883;DHT22;5494;51.796;10.952;2023-06-22T09:17:53;27.60;99.90
10883;DHT22;5494;51.796;10.952;2023-06-22T09:20:23;28.00;99.90
10883;DHT22;5494;51.796;10.952;2023-06-22T09:22:51;28.20;99.90
10883;DHT22;5494;51.796;10.952;2023-06-22T09:25:20;28.60;99.90
10883;DHT22;5494;51.796;10.952;2023-06-22T09:27:48;29.30;99.90
10883;DHT22;5494;51.796;10.952;2023-06-22T09:30:16;29.50;99.90
10883;DHT22;5494;51.796;10.952;2023-06-22T09:32:44;29.80;99.90
10883;DHT22;5494;51.796;10.952;2023-06-22T09:35:12;29.60;99.90
10883;DHT22;5494;51.796;10.952;2023-06-22T09:37:42;28.90;99.90
10883;DHT22;5494;51.796;10.952;2023-06-22T09:40:11;28.00;99.90
10883;DHT22;5494;51.796;10.952;2023-06-22T09:42:41;27.70;99.90
10883;DHT22;5494;51.796;10.952;2023-06-22T09:45:09;27.90;99.90
10883;DHT22;5494;51.796;10.952;2023-06-22T09:47:38;28.50;99.90
10883;DHT22;5494;51.796;10.952;2023-06-22T09:50:06;28.90;99.90
10883;DHT22;5494;51.796;10.952;2023-06-22T09:52:35;28.80;99.90
10883;DHT22;5494;51.796;10.952;2023-06-22T09:55:08;29.30;99.90
10883;DHT22;5494;51.796;10.952;2023-06-22T09:57:36;29.70;99.90
10883;DHT22;5494;51.796;10.952;2023-06-22T10:00:06;29.40;99.90
10883;DHT22;5494;51.796;10.952;2023-06-22T10:02:38;29.40;99.90
10883;DHT22;5494;51.796;10.952;2023-06-22T10:05:07;28.90;99.90
10883;DHT22;5494;51.796;10.952;2023-06-22T10:07:36;28.90;99.90
10883;DHT22;5494;51.796;10.952;2023-06-22T10:10:08;29.00;99.90
10883;DHT22;5494;51.796;10.952;2023-06-22T10:12:41;28.60;99.90
10883;DHT22;5494;51.796;10.952;2023-06-22T10:15:11;28.30;99.90
10883;DHT22;5494;51.796;10.952;2023-06-22T10:17:40;28.40;99.90
10883;DHT22;5494;51.796;10.952;2023-06-22T10:20:08;28.40;99.90
10883;DHT22;5494;51.796;10.952;2023-06-22T10:22:39;28.40;99.90
10883;DHT22;5494;51.796;10.952;2023-06-22T10:25:10;28.40;99.90
10883;DHT22;5494;51.796;10.952;2023-06-22T10:27:39;28.20;99.90
10883;DHT22;5494;51.796;10.952;2023-06-22T10:30:09;28.50;99.90
10883;DHT22;5494;51.796;10.952;2023-06-22T10:32:40;28.50;99.90
10883;DHT22;5494;51.796;10.952;2023-06-22T10:35:09;28.40;99.90
10883;DHT22;5494;51.796;10.952;2023-06-22T10:37:41;28.10;99.90
10883;DHT22;5494;51.796;10.952;2023-06-22T10:40:12;28.10;99.90
10883;DHT22;5494;51.796;10.952;2023-06-22T10:42:42;28.00;99.90
10883;DHT22;5494;51.796;10.952;2023-06-22T10:45:11;28.10;99.90
10883;DHT22;5494;51.796;10.952;2023-06-22T10:47:39;28.10;99.90
10883;DHT22;5494;51.796;10.952;2023-06-22T10:50:09;28.00;99.90
10883;DHT22;5494;51.796;10.952;2023-06-22T10:52:38;28.00;99.90
10883;DHT22;5494;51.796;10.952;2023-06-22T10:55:06;28.20;99.90
10883;DHT22;5494;51.796;10.952;2023-06-22T10:57:36;27.90;99.90
10883;DHT22;5494;51.796;10.952;2023-06-22T11:00:07;27.50;99.90
10883;DHT22;5494;51.796;10.952;2023-06-22T11:02:37;27.40;99.90
10883;DHT22;5494;51.796;10.952;2023-06-22T11:05:06;27.50;99.90
10883;DHT22;5494;51.796;10.952;2023-06-22T11:07:35;27.50;99.90
10883;DHT22;5494;51.796;10.952;2023-06-22T11:10:03;27.70;99.90
10883;DHT22;5494;51.796;10.952;2023-06-22T11:12:32;27.80;99.90
10883;DHT22;5494;51.796;10.952;2023-06-22T11:15:02;27.70;99.90
10883;DHT22;5494;51.796;10.952;2023-06-22T11:17:30;27.60;99.90
10883;DHT22;5494;51.796;10.952;2023-06-22T11:19:58;27.50;99.90
10883;DHT22;5494;51.796;10.952;2023-06-22T11:22:27;27.50;99.90
10883;DHT22;5494;51.796;10.952;2023-06-22T11:24:56;27.60;99.90
10883;DHT22;5494;51.796;10.952;2023-06-22T11:27:24;27.50;99.90
10883;DHT22;5494;51.796;10.952;2023-06-22T11:29:52;27.50;99.90
10883;DHT22;5494;51.796;10.952;2023-06-22T11:32:22;27.50;99.90
10883;DHT22;5494;51.796;10.952;2023-06-22T11:34:50;27.60;99.90
10883;DHT22;5494;51.796;10.952;2023-06-22T11:37:18;27.90;99.90
10883;DHT22;5494;51.796;10.952;2023-06-22T11:39:47;28.10;99.90
10883;DHT22;5494;51.796;10.952;2023-06-22T11:42:18;28.20;99.90
10883;DHT22;5494;51.796;10.952;2023-06-22T11:44:47;28.30;99.90
10883;DHT22;5494;51.796;10.952;2023-06-22T11:47:15;28.20;99.90
10883;DHT22;5494;51.796;10.952;2023-06-22T11:49:47;28.10;99.90
10883;DHT22;5494;51.796;10.952;2023-06-22T11:52:16;28.30;99.90
10883;DHT22;5494;51.796;10.952;2023-06-22T11:54:46;28.40;99.90
10883;DHT22;5494;51.796;10.952;2023-06-22T11:57:14;28.30;99.90
10883;DHT22;5494;51.796;10.952;2023-06-22T11:59:42;28.10;99.90
10883;DHT22;5494;51.796;10.952;2023-06-22T12:02:10;27.90;99.90
10883;DHT22;5494;51.796;10.952;2023-06-22T12:04:38;27.70;99.90
10883;DHT22;5494;51.796;10.952;2023-06-22T12:07:08;27.50;99.90
10883;DHT22;5494;51.796;10.952;2023-06-22T12:09:36;27.40;99.90
10883;DHT22;5494;51.796;10.952;2023-06-22T12:12:05;27.40;99.90
10883;DHT22;5494;51.796;10.952;2023-06-22T12:14:33;27.60;99.90
10883;DHT22;5494;51.796;10.952;2023-06-22T12:17:02;27.60;99.90
10883;DHT22;5494;51.796;10.952;2023-06-22T12:19:30;27.70;99.90
10883;DHT22;5494;51.796;10.952;2023-06-22T12:21:58;27.70;99.90
10883;DHT22;5494;51.796;10.952;2023-06-22T12:24:28;27.60;99.90
10883;DHT22;5494;51.796;10.952;2023-06-22T12:26:56;27.50;99.90
10883;DHT22;5494;51.796;10.952;2023-06-22T12:29:24;27.70;99.90
10883;DHT22;5494;51.796;10.952;2023-06-22T12:31:52;27.80;99.90
10883;DHT22;5494;51.796;10.952;2023-06-22T12:34:20;28.00;99.90
10883;DHT22;5494;51.796;10.952;2023-06-22T12:36:48;28.10;99.90
10883;DHT22;5494;51.796;10.952;2023-06-22T12:39:16;28.00;99.90
10883;DHT22;5494;51.796;10.952;2023-06-22T12:41:46;27.80;99.90
10883;DHT22;5494;51.796;10.952;2023-06-22T12:44:14;27.90;99.90
10883;DHT22;5494;51.796;10.952;2023-06-22T12:46:42;27.90;99.90
10883;DHT22;5494;51.796;10.952;2023-06-22T12:49:10;27.80;99.90
10883;DHT22;5494;51.796;10.952;2023-06-22T12:51:40;27.70;99.90
10883;DHT22;5494;51.796;10.952;2023-06-22T12:54:09;27.70;99.90
10883;DHT22;5494;51.796;10.952;2023-06-22T12:56:38;27.70;99.90
10883;DHT22;5494;51.796;10.952;2023-06-22T12:59:08;27.80;99.90
10883;DHT22;5494;51.796;10.952;2023-06-22T13:01:37;28.00;99.90
10883;DHT22;5494;51.796;10.952;2023-06-22T13:04:05;27.90;99.90
10883;DHT22;5494;51.796;10.952;2023-06-22T13:06:33;28.10;99.90
10883;DHT22;5494;51.796;10.952;2023-06-22T13:09:02;28.20;99.90
10883;DHT22;5494;51.796;10.952;2023-06-22T13:11:34;28.30;99.90
10883;DHT22;5494;51.796;10.952;2023-06-22T13:14:02;28.30;99.90
10883;DHT22;5494;51.796;10.952;2023-06-22T13:16:34;28.20;99.90
10883;DHT22;5494;51.796;10.952;2023-06-22T13:19:02;28.10;99.90
10883;DHT22;5494;51.796;10.952;2023-06-22T13:21:30;27.90;99.90
10883;DHT22;5494;51.796;10.952;2023-06-22T13:24:00;28.00;99.90
10883;DHT22;5494;51.796;10.952;2023-06-22T13:26:28;28.10;99.90
10883;DHT22;5494;51.796;10.952;2023-06-22T13:28:56;28.10;99.90
10883;DHT22;5494;51.796;10.952;2023-06-22T13:31:25;28.00;99.90
10883;DHT22;5494;51.796;10.952;2023-06-22T13:33:54;28.00;99.90
10883;DHT22;5494;51.796;10.952;2023-06-22T13:36:22;28.10;99.90
10883;DHT22;5494;51.796;10.952;2023-06-22T13:38:51;28.20;99.90
10883;DHT22;5494;51.796;10.952;2023-06-22T13:41:22;28.40;99.90
10883;DHT22;5494;51.796;10.952;2023-06-22T13:43:51;28.60;99.90
10883;DHT22;5494;51.796;10.952;2023-06-22T13:46:20;28.60;99.90
10883;DHT22;5494;51.796;10.952;2023-06-22T13:48:48;28.80;99.90
10883;DHT22;5494;51.796;10.952;2023-06-22T13:51:18;28.80;99.90
10883;DHT22;5494;51.796;10.952;2023-06-22T13:53:46;28.60;99.90
10883;DHT22;5494;51.796;10.952;2023-06-22T13:56:14;28.70;99.90
10883;DHT22;5494;51.796;10.952;2023-06-22T13:58:42;28.80;99.90
10883;DHT22;5494;51.796;10.952;2023-06-22T14:01:10;28.90;99.90
10883;DHT22;5494;51.796;10.952;2023-06-22T14:03:43;28.80;99.90
10883;DHT22;5494;51.796;10.952;2023-06-22T14:06:13;28.60;99.90
10883;DHT22;5494;51.796;10.952;2023-06-22T14:08:43;28.30;99.90
10883;DHT22;5494;51.796;10.952;2023-06-22T14:11:11;28.20;99.90
10883;DHT22;5494;51.796;10.952;2023-06-22T14:13:39;28.30;99.90
10883;DHT22;5494;51.796;10.952;2023-06-22T14:16:11;28.60;99.90
10883;DHT22;5494;51.796;10.952;2023-06-22T14:18:40;28.70;99.90
10883;DHT22;5494;51.796;10.952;2023-06-22T14:21:08;28.70;99.90
10883;DHT22;5494;51.796;10.952;2023-06-22T14:23:36;29.00;99.90
10883;DHT22;5494;51.796;10.952;2023-06-22T14:26:06;29.10;99.90
10883;DHT22;5494;51.796;10.952;2023-06-22T14:28:34;28.90;99.90
10883;DHT22;5494;51.796;10.952;2023-06-22T14:31:02;28.90;99.90
10883;DHT22;5494;51.796;10.952;2023-06-22T14:33:30;28.90;99.90
10883;DHT22;5494;51.796;10.952;2023-06-22T14:35:58;28.80;99.90
10883;DHT22;5494;51.796;10.952;2023-06-22T14:38:26;28.90;99.90
10883;DHT22;5494;51.796;10.952;2023-06-22T14:40:55;28.90;99.90
10883;DHT22;5494;51.796;10.952;2023-06-22T14:43:45;28.80;99.90
10883;DHT22;5494;51.796;10.952;2023-06-22T14:46:14;28.80;99.90
10883;DHT22;5494;51.796;10.952;2023-06-22T14:48:43;28.80;99.90
10883;DHT22;5494;51.796;10.952;2023-06-22T14:51:12;28.80;99.90
10883;DHT22;5494;51.796;10.952;2023-06-22T14:53:44;28.80;99.90
10883;DHT22;5494;51.796;10.952;2023-06-22T14:56:13;28.80;99.90
10883;DHT22;5494;51.796;10.952;2023-06-22T14:58:44;28.70;99.90
10883;DHT22;5494;51.796;10.952;2023-06-22T15:01:13;28.70;99.90
10883;DHT22;5494;51.796;10.952;2023-06-22T15:03:45;28.60;99.90
10883;DHT22;5494;51.796;10.952;2023-06-22T15:06:13;28.70;99.90
10883;DHT22;5494;51.796;10.952;2023-06-22T15:08:42;28.70;99.90
10883;DHT22;5494;51.796;10.952;2023-06-22T15:11:11;28.70;99.90
10883;DHT22;5494;51.796;10.952;2023-06-22T15:13:40;28.70;99.90
10883;DHT22;5494;51.796;10.952;2023-06-22T15:16:10;28.70;99.90
10883;DHT22;5494;51.796;10.952;2023-06-22T15:18:38;28.80;99.90
10883;DHT22;5494;51.796;10.952;2023-06-22T15:21:07;28.70;99.90
10883;DHT22;5494;51.796;10.952;2023-06-22T15:23:36;28.70;99.90
10883;DHT22;5494;51.796;10.952;2023-06-22T15:26:04;28.70;99.90
10883;DHT22;5494;51.796;10.952;2023-06-22T15:28:32;28.60;99.90
10883;DHT22;5494;51.796;10.952;2023-06-22T15:31:04;28.50;99.90
10883;DHT22;5494;51.796;10.952;2023-06-22T15:33:33;28.40;99.90
10883;DHT22;5494;51.796;10.952;2023-06-22T15:36:04;28.40;99.90
10883;DHT22;5494;51.796;10.952;2023-06-22T15:38:33;28.30;99.90
10883;DHT22;5494;51.796;10.952;2023-06-22T15:41:04;28.20;99.90
10883;DHT22;5494;51.796;10.952;2023-06-22T15:43:33;28.20;99.90
10883;DHT22;5494;51.796;10.952;2023-06-22T15:46:04;28.10;99.90